Time;durP1;ratioP1;P1;durP2;ratioP2;P2;SDS_P1;SDS_P2;PMS_P1;PMS_P2;Temp;Humidity;BMP_temperature;BMP_pressure;BME280_temperature;BME280_humidity;BME280_pressure;Samples;Min_cycle;Max_cycle;Signal;HPM_P1;HPM_P2
2021/08/22 00:00:51;;;;;;;3.90;1.95;;;;;;;15.02;89.87;101198.47;5031835;28;20030;-85
2021/08/22 00:03:17;;;;;;;7.05;2.10;;;;;;;14.93;89.97;101187.78;5011913;28;20035;-86
2021/08/22 00:05:43;;;;;;;5.47;1.75;;;;;;;14.95;90.38;101193.84;5010365;28;20032;-85
2021/08/22 00:08:10;;;;;;;4.95;1.70;;;;;;;14.93;90.25;101189.66;5012292;28;20030;-84
2021/08/22 00:10:36;;;;;;;5.18;1.67;;;;;;;14.94;90.28;101194.84;5042144;28;20043;-85
2021/08/22 00:13:02;;;;;;;6.47;1.98;;;;;;;14.88;90.66;101184.81;5026736;28;20112;-87
2021/08/22 00:15:27;;;;;;;8.45;1.60;;;;;;;14.95;90.34;101203.81;5011941;28;20033;-85
2021/08/22 00:17:53;;;;;;;7.53;2.10;;;;;;;14.90;90.43;101198.16;5011614;28;20029;-83
2021/08/22 00:20:21;;;;;;;6.68;1.88;;;;;;;14.93;90.38;101197.78;4996747;28;20520;-86
2021/08/22 00:22:48;;;;;;;4.85;1.70;;;;;;;14.94;90.38;101208.38;5029589;28;20035;-87
2021/08/22 00:25:13;;;;;;;3.60;1.80;;;;;;;14.86;90.04;101203.09;5013452;28;20083;-86
2021/08/22 00:27:39;;;;;;;5.15;1.90;;;;;;;14.88;90.27;101201.06;5027972;28;20026;-84
2021/08/22 00:30:06;;;;;;;5.93;1.73;;;;;;;14.92;90.26;101207.78;5020429;28;20030;-85
2021/08/22 00:32:31;;;;;;;8.68;2.00;;;;;;;14.94;90.27;101211.09;5011847;28;20033;-85
2021/08/22 00:34:57;;;;;;;5.13;1.85;;;;;;;14.95;90.19;101212.78;5001340;28;20029;-87
2021/08/22 00:37:26;;;;;;;3.67;1.60;;;;;;;14.93;90.10;101209.44;5011722;28;20029;-86
2021/08/22 00:39:56;;;;;;;7.90;2.45;;;;;;;14.92;90.00;101212.31;5010843;28;20028;-87
2021/08/22 00:42:24;;;;;;;7.93;2.08;;;;;;;14.91;89.30;101214.19;5012220;28;20047;-85
2021/08/22 00:44:50;;;;;;;10.18;2.67;;;;;;;14.86;89.34;101203.09;5008940;28;20032;-86
2021/08/22 00:47:15;;;;;;;10.38;2.75;;;;;;;14.89;89.29;101210.84;5028939;28;20041;-87
2021/08/22 00:49:41;;;;;;;12.18;3.72;;;;;;;14.81;88.80;101208.25;4997510;28;20036;-86
2021/08/22 00:52:07;;;;;;;6.47;2.60;;;;;;;14.79;88.71;101209.47;5010564;28;20040;-87
2021/08/22 00:54:34;;;;;;;6.75;2.10;;;;;;;14.84;88.97;101226.81;5026569;28;20029;-86
2021/08/22 00:57:00;;;;;;;6.57;2.30;;;;;;;14.79;88.78;101223.88;5029644;28;20056;-85
2021/08/22 00:59:26;;;;;;;5.97;1.92;;;;;;;14.80;88.70;101228.25;5011509;28;20477;-86
2021/08/22 01:01:54;;;;;;;5.53;2.28;;;;;;;14.81;89.11;101238.03;5046337;28;20051;-86
2021/08/22 01:04:24;;;;;;;4.20;1.48;;;;;;;14.80;88.87;101240.94;5029576;28;20032;-85
2021/08/22 01:07:07;;;;;;;7.00;5.13;;;;;;;14.85;89.21;101235.81;5027932;28;20029;-85
2021/08/22 01:09:39;;;;;;;9.52;4.60;;;;;;;14.87;88.92;101240.00;5030456;28;20034;-86
2021/08/22 01:12:09;;;;;;;7.03;3.85;;;;;;;14.76;88.45;101234.22;4997340;28;20037;-86
2021/08/22 01:14:38;;;;;;;4.72;2.65;;;;;;;14.70;88.51;101235.84;4999182;28;20029;-86
2021/08/22 01:17:04;;;;;;;8.65;2.33;;;;;;;14.76;88.63;101245.06;5024982;28;20100;-86
2021/08/22 01:19:57;;;;;;;8.25;2.92;;;;;;;14.76;88.11;101250.47;5045889;28;20395;-86
2021/08/22 01:22:24;;;;;;;5.85;2.42;;;;;;;14.75;88.37;101251.50;4996341;28;20791;-85
2021/08/22 01:24:51;;;;;;;7.32;1.67;;;;;;;14.72;88.03;101250.03;5027889;28;20053;-87
2021/08/22 01:27:18;;;;;;;7.50;1.70;;;;;;;14.74;88.47;101250.69;5010491;28;20025;-86
2021/08/22 01:30:07;;;;;;;6.65;2.10;;;;;;;14.76;88.46;101259.44;5010932;28;20033;-86
2021/08/22 01:32:38;;;;;;;9.57;1.75;;;;;;;14.75;87.91;101268.59;5012041;28;20119;-86
2021/08/22 01:35:06;;;;;;;6.30;1.52;;;;;;;14.73;88.56;101260.66;5027715;28;20079;-86
2021/08/22 01:37:33;;;;;;;5.88;1.50;;;;;;;14.70;88.29;101255.63;4991127;28;20029;-86
2021/08/22 01:39:59;;;;;;;5.38;1.73;;;;;;;14.75;88.53;101273.16;5012838;28;20108;-86
2021/08/22 01:42:25;;;;;;;5.15;2.15;;;;;;;14.65;88.32;101254.53;5010335;28;20021;-86
2021/08/22 01:44:51;;;;;;;5.20;2.38;;;;;;;14.63;88.94;101259.28;5015077;28;20036;-86
2021/08/22 01:47:17;;;;;;;6.82;2.00;;;;;;;14.65;88.84;101265.34;5013329;28;20037;-86
2021/08/22 01:49:44;;;;;;;6.13;1.73;;;;;;;14.67;89.22;101272.25;4997873;28;20369;-85
2021/08/22 01:52:14;;;;;;;4.47;1.77;;;;;;;14.64;89.42;101269.94;5009772;28;20122;-85
2021/08/22 01:54:42;;;;;;;5.80;2.08;;;;;;;14.68;89.82;101275.78;5011643;28;20025;-86
2021/08/22 01:57:08;;;;;;;5.97;1.90;;;;;;;14.51;89.80;101242.69;5025848;28;20056;-86
2021/08/22 01:59:37;;;;;;;7.20;1.70;;;;;;;14.68;90.02;101263.09;5008564;28;20766;-85
2021/08/22 02:02:03;;;;;;;7.78;2.47;;;;;;;14.68;90.17;101264.97;4994725;28;20029;-86
2021/08/22 02:04:46;;;;;;;4.10;2.00;;;;;;;14.70;89.86;101263.75;4993504;28;20160;-86
2021/08/22 02:07:20;;;;;;;4.50;1.73;;;;;;;14.76;90.33;101272.13;5023083;28;20749;-85
2021/08/22 02:10:05;;;;;;;5.28;2.00;;;;;;;14.77;90.07;101284.66;5009198;28;20055;-86
2021/08/22 02:12:32;;;;;;;5.68;2.13;;;;;;;14.70;90.33;101284.56;5026807;28;20144;-86
2021/08/22 02:15:09;;;;;;;5.88;1.88;;;;;;;14.70;90.29;101290.81;5024958;28;20033;-85
2021/08/22 02:17:44;;;;;;;4.25;1.95;;;;;;;14.66;90.46;101291.38;5027849;28;20515;-87
2021/08/22 02:20:10;;;;;;;6.18;1.70;;;;;;;14.56;90.53;101283.56;5027519;28;20049;-85
2021/08/22 02:22:41;;;;;;;6.40;1.70;;;;;;;14.61;90.86;101291.97;5024494;28;20071;-85
2021/08/22 02:25:08;;;;;;;4.13;1.60;;;;;;;14.62;90.45;101299.03;5028826;28;20048;-86
2021/08/22 02:27:34;;;;;;;4.80;1.90;;;;;;;14.55;90.79;101298.09;5008875;28;20033;-85
2021/08/22 02:30:00;;;;;;;4.05;1.70;;;;;;;14.50;91.04;101295.09;5021896;28;20040;-84
2021/08/22 02:32:26;;;;;;;5.22;2.08;;;;;;;14.34;91.39;101277.19;5010570;28;20040;-86
2021/08/22 02:34:52;;;;;;;8.27;2.00;;;;;;;14.45;91.20;101301.09;5010067;28;20025;-86
2021/08/22 02:37:17;;;;;;;7.53;2.05;;;;;;;14.40;91.35;101297.28;5023720;28;20026;-85
2021/08/22 02:39:44;;;;;;;9.65;1.98;;;;;;;14.22;91.42;101279.56;4994523;28;20248;-86
2021/08/22 02:42:09;;;;;;;6.68;2.00;;;;;;;14.16;91.89;101265.94;5008843;28;20029;-86
2021/08/22 02:44:35;;;;;;;6.82;2.10;;;;;;;14.37;91.90;101311.16;5024490;28;20048;-86
2021/08/22 02:47:01;;;;;;;7.90;2.15;;;;;;;14.40;92.10;101310.81;5005715;28;20048;-86
2021/08/22 02:49:26;;;;;;;6.70;1.98;;;;;;;14.36;91.95;101307.63;5024244;28;20030;-85
2021/08/22 02:51:52;;;;;;;9.68;2.78;;;;;;;14.36;92.00;101304.06;5006839;28;20996;-85
2021/08/22 02:54:18;;;;;;;6.63;2.15;;;;;;;14.38;92.23;101310.97;5022535;28;20030;-85
2021/08/22 02:56:43;;;;;;;6.10;1.92;;;;;;;14.30;92.35;101289.44;4991804;28;20022;-87
2021/08/22 02:59:09;;;;;;;8.30;2.22;;;;;;;14.37;92.59;101308.44;5025678;28;20868;-86
2021/08/22 03:01:34;;;;;;;10.95;2.10;;;;;;;14.41;92.39;101309.78;5024505;28;20037;-85
2021/08/22 03:04:00;;;;;;;7.13;2.10;;;;;;;14.51;92.64;101321.97;4992342;28;20099;-86
2021/08/22 03:06:26;;;;;;;7.70;2.03;;;;;;;14.45;92.37;101314.63;5024523;28;20036;-85
2021/08/22 03:08:51;;;;;;;6.07;1.88;;;;;;;14.50;92.16;101314.91;4993256;28;21979;-86
2021/08/22 03:11:18;;;;;;;7.35;1.67;;;;;;;14.38;92.36;101296.63;4990398;28;20029;-86
2021/08/22 03:13:45;;;;;;;8.25;2.45;;;;;;;14.52;92.54;101320.97;5026357;28;20029;-86
2021/08/22 03:16:11;;;;;;;6.30;1.70;;;;;;;14.42;92.52;101304.19;5006410;28;20113;-86
2021/08/22 03:18:36;;;;;;;4.97;2.05;;;;;;;14.40;92.49;101303.53;5006399;28;20164;-86
2021/08/22 03:21:02;;;;;;;6.97;1.90;;;;;;;14.37;92.53;101301.19;5015330;28;20447;-87
2021/08/22 03:23:28;;;;;;;11.32;2.75;;;;;;;14.46;92.22;101312.75;5010839;28;20044;-86
2021/08/22 03:25:53;;;;;;;9.57;2.30;;;;;;;14.54;92.30;101323.50;5011275;28;20148;-86
2021/08/22 03:28:20;;;;;;;4.53;2.03;;;;;;;14.60;92.53;101338.97;5013451;28;20511;-87
2021/08/22 03:30:46;;;;;;;3.50;1.98;;;;;;;14.52;92.40;101322.81;4991019;28;20168;-85
2021/08/22 03:33:12;;;;;;;5.15;1.80;;;;;;;14.56;92.41;101336.84;5010408;28;20108;-86
2021/08/22 03:35:40;;;;;;;5.60;1.90;;;;;;;14.39;92.38;101320.75;4991350;28;20044;-85
2021/08/22 03:38:06;;;;;;;9.02;2.20;;;;;;;14.58;92.61;101342.91;5024415;28;20071;-85
2021/08/22 03:40:32;;;;;;;5.55;1.63;;;;;;;14.45;92.51;101330.03;5028070;28;20034;-85
2021/08/22 03:42:57;;;;;;;9.93;2.33;;;;;;;14.47;92.56;101330.66;5006292;28;20493;-86
2021/08/22 03:45:23;;;;;;;7.10;1.88;;;;;;;14.60;92.51;101355.22;5025753;28;20028;-85
2021/08/22 03:47:49;;;;;;;9.07;2.65;;;;;;;14.57;92.42;101349.34;5009201;28;20035;-86
2021/08/22 03:50:16;;;;;;;6.93;1.90;;;;;;;14.58;92.46;101364.56;5025028;28;20476;-85
2021/08/22 03:52:42;;;;;;;7.25;2.13;;;;;;;14.58;92.56;101351.03;5006451;28;20486;-86
2021/08/22 03:55:08;;;;;;;4.85;2.05;;;;;;;14.58;92.61;101356.44;5028420;28;20499;-86
2021/08/22 03:57:34;;;;;;;5.72;1.80;;;;;;;14.46;92.70;101342.50;5005943;28;20037;-86
2021/08/22 04:00:00;;;;;;;7.60;1.92;;;;;;;14.56;92.80;101363.91;5028611;28;20053;-86
2021/08/22 04:02:26;;;;;;;4.90;1.75;;;;;;;14.54;92.97;101358.69;5032695;28;20025;-86
2021/08/22 04:04:51;;;;;;;6.00;2.08;;;;;;;14.49;92.88;101364.63;5038311;28;20033;-87
2021/08/22 04:07:17;;;;;;;5.85;1.88;;;;;;;14.34;92.74;101334.00;5018340;28;20026;-87
2021/08/22 04:09:43;;;;;;;7.05;2.13;;;;;;;14.49;92.92;101370.03;5020657;28;20060;-86
2021/08/22 04:12:09;;;;;;;5.97;1.98;;;;;;;14.52;92.25;101374.22;5022911;28;20052;-86
2021/08/22 04:14:35;;;;;;;6.85;2.10;;;;;;;14.49;92.90;101367.31;5019432;28;20582;-89
2021/08/22 04:17:00;;;;;;;5.10;1.85;;;;;;;14.50;92.54;101371.72;5037327;28;20025;-87
2021/08/22 04:19:26;;;;;;;8.35;2.30;;;;;;;14.46;92.85;101380.41;5019822;28;20059;-87
2021/08/22 04:21:52;;;;;;;7.20;2.10;;;;;;;14.42;92.82;101371.81;5016944;28;20032;-88
2021/08/22 04:24:17;;;;;;;6.78;2.20;;;;;;;14.46;92.70;101380.41;5008740;28;20029;-86
2021/08/22 04:26:43;;;;;;;4.38;2.08;;;;;;;14.40;93.02;101376.56;5035480;28;21817;-86
2021/08/22 04:29:09;;;;;;;7.88;1.95;;;;;;;14.35;92.76;101373.59;5037416;28;20036;-86
2021/08/22 04:31:35;;;;;;;5.60;1.90;;;;;;;14.23;92.75;101358.81;5021298;28;20033;-86
2021/08/22 04:34:00;;;;;;;4.78;1.73;;;;;;;14.33;92.93;101367.50;5020234;28;20033;-88
2021/08/22 04:36:26;;;;;;;5.95;1.80;;;;;;;14.08;92.86;101326.38;5021050;28;20090;-87
2021/08/22 04:38:55;;;;;;;11.15;2.05;;;;;;;14.33;92.94;101378.34;5020387;28;20033;-89
2021/08/22 04:41:21;;;;;;;8.85;1.77;;;;;;;14.31;92.88;101374.97;5033292;28;20040;-85
2021/08/22 04:43:47;;;;;;;4.15;1.90;;;;;;;14.36;92.94;101377.94;5012363;28;20030;-87
2021/08/22 04:46:13;;;;;;;8.30;2.10;;;;;;;14.36;92.72;101386.06;4994413;28;20037;-84
2021/08/22 04:48:39;;;;;;;6.80;1.83;;;;;;;14.41;92.83;101399.88;5028638;28;20719;-85
2021/08/22 04:51:05;;;;;;;5.40;1.60;;;;;;;14.35;92.82;101395.22;5027119;28;20022;-85
2021/08/22 04:53:32;;;;;;;3.67;1.60;;;;;;;14.13;92.76;101355.53;5027731;28;20021;-84
2021/08/22 04:55:58;;;;;;;4.32;1.83;;;;;;;14.41;92.86;101407.16;5027294;28;20436;-87
2021/08/22 04:58:23;;;;;;;6.00;2.10;;;;;;;14.35;92.68;101395.22;5027919;28;20392;-86
2021/08/22 05:00:49;;;;;;;7.80;2.75;;;;;;;14.36;92.76;101404.16;5010848;28;20029;-87
2021/08/22 05:03:15;;;;;;;7.90;2.63;;;;;;;14.38;93.15;101408.38;5023909;28;20041;-88
2021/08/22 05:05:40;;;;;;;7.18;2.05;;;;;;;14.18;92.95;101378.31;5038489;28;20044;-85
2021/08/22 05:08:06;;;;;;;4.65;1.73;;;;;;;14.23;92.95;101385.88;5018785;28;20495;-86
2021/08/22 05:10:32;;;;;;;4.75;1.77;;;;;;;14.41;92.75;101410.72;5020781;28;20501;-85
2021/08/22 05:12:57;;;;;;;6.22;2.05;;;;;;;14.38;93.08;101412.94;5036948;28;20030;-89
2021/08/22 05:15:23;;;;;;;7.10;2.10;;;;;;;14.46;92.87;101424.53;5018815;28;20033;-86
2021/08/22 05:17:49;;;;;;;8.45;2.10;;;;;;;14.42;92.80;101417.81;5037926;28;20025;-87
2021/08/22 05:20:14;;;;;;;6.60;2.50;;;;;;;14.23;92.91;101388.56;5019790;28;20392;-87
2021/08/22 05:22:40;;;;;;;8.55;2.60;;;;;;;14.40;92.76;101427.16;5035882;28;20083;-88
2021/08/22 05:25:06;;;;;;;7.72;1.90;;;;;;;14.47;92.88;101433.47;5035203;28;20037;-88
2021/08/22 05:27:32;;;;;;;7.53;2.90;;;;;;;14.47;93.12;101442.47;5016218;28;20084;-85
2021/08/22 05:29:58;;;;;;;9.32;2.17;;;;;;;14.45;93.03;101439.09;5027241;28;20540;-86
2021/08/22 05:32:24;;;;;;;4.65;1.95;;;;;;;14.52;92.79;101445.44;5011264;28;20044;-85
2021/08/22 05:34:49;;;;;;;5.00;1.58;;;;;;;14.49;92.92;101437.69;5026289;28;20112;-85
2021/08/22 05:37:15;;;;;;;5.68;1.83;;;;;;;14.50;92.92;101441.22;5008972;28;20017;-87
2021/08/22 05:39:41;;;;;;;6.30;1.95;;;;;;;14.52;92.78;101445.44;5024834;28;20025;-86
2021/08/22 05:42:07;;;;;;;9.18;2.10;;;;;;;14.58;92.70;101454.72;5025709;28;20396;-85
2021/08/22 05:44:34;;;;;;;6.07;1.60;;;;;;;14.54;92.58;101450.69;5027164;28;20029;-87
2021/08/22 05:46:59;;;;;;;6.40;1.95;;;;;;;14.49;92.83;101451.22;5028278;28;20037;-86
2021/08/22 05:49:25;;;;;;;7.75;1.98;;;;;;;14.54;92.97;101455.28;5013484;28;20029;-86
2021/08/22 05:51:50;;;;;;;5.85;1.77;;;;;;;14.63;92.84;101473.09;4994661;28;20479;-85
2021/08/22 05:54:16;;;;;;;9.50;2.40;;;;;;;14.49;92.50;101450.38;5026385;28;20072;-84
2021/08/22 05:56:42;;;;;;;8.50;2.67;;;;;;;14.49;92.67;101453.91;5025045;28;20025;-85
2021/08/22 05:59:07;;;;;;;7.40;2.13;;;;;;;14.57;92.67;101463.84;4993323;28;20051;-85
2021/08/22 06:01:33;;;;;;;12.60;2.40;;;;;;;14.50;92.39;101450.19;5008448;28;20379;-84
2021/08/22 06:03:59;;;;;;;9.27;3.05;;;;;;;14.63;92.70;101470.38;5008147;28;20029;-85
2021/08/22 06:06:25;;;;;;;4.72;1.75;;;;;;;14.67;92.50;101483.38;5006198;28;20037;-85
2021/08/22 06:08:51;;;;;;;7.47;1.70;;;;;;;14.57;92.58;101471.13;5025956;28;20048;-84
2021/08/22 06:11:16;;;;;;;6.70;1.90;;;;;;;14.62;92.40;101479.53;5013021;28;20109;-84
2021/08/22 06:13:42;;;;;;;4.03;1.77;;;;;;;14.59;92.27;101471.78;5023589;28;20058;-86
2021/08/22 06:16:08;;;;;;;5.32;1.88;;;;;;;14.61;92.06;101469.75;5023867;28;20387;-85
2021/08/22 06:18:33;;;;;;;8.57;2.00;;;;;;;14.76;91.85;101494.94;5009805;28;20080;-85
2021/08/22 06:20:59;;;;;;;8.23;2.03;;;;;;;14.75;92.30;101492.44;5027446;28;20029;-86
2021/08/22 06:23:25;;;;;;;7.63;1.95;;;;;;;14.72;92.09;101493.66;5025917;28;20029;-86
2021/08/22 06:25:50;;;;;;;5.60;1.77;;;;;;;14.74;92.06;101502.44;5026692;28;20504;-86
2021/08/22 06:28:16;;;;;;;6.05;2.67;;;;;;;14.66;92.08;101491.66;5008086;28;20091;-84
2021/08/22 06:30:42;;;;;;;5.45;1.70;;;;;;;14.68;92.01;101508.56;5010938;28;20071;-86
2021/08/22 06:33:09;;;;;;;5.70;2.10;;;;;;;14.65;92.43;101509.78;5010654;28;20573;-86
2021/08/22 06:35:35;;;;;;;4.97;1.90;;;;;;;14.58;92.25;101495.31;5024403;28;20037;-86
2021/08/22 06:38:00;;;;;;;6.35;2.03;;;;;;;14.63;92.33;101506.44;5026349;28;20029;-86
2021/08/22 06:40:26;;;;;;;8.23;2.58;;;;;;;14.50;92.34;101493.50;5011698;28;20439;-86
2021/08/22 06:42:52;;;;;;;6.75;1.77;;;;;;;14.69;92.07;101521.09;5010658;28;20049;-85
2021/08/22 06:45:17;;;;;;;6.20;1.95;;;;;;;14.65;92.12;101519.78;5025320;28;20033;-85
2021/08/22 06:47:46;;;;;;;5.15;1.88;;;;;;;14.76;92.17;101532.84;4993313;28;20029;-87
2021/08/22 06:50:13;;;;;;;7.90;1.90;;;;;;;14.80;92.01;101528.75;5010199;28;20022;-85
2021/08/22 06:52:39;;;;;;;10.77;1.95;;;;;;;14.79;91.71;101529.78;5025819;28;20026;-85
2021/08/22 06:55:05;;;;;;;7.45;2.10;;;;;;;14.84;91.66;101540.03;5024695;28;20032;-86
2021/08/22 06:57:31;;;;;;;5.70;1.60;;;;;;;14.82;91.52;101536.69;4993779;28;20087;-86
2021/08/22 06:59:56;;;;;;;8.35;1.98;;;;;;;14.86;92.27;101541.53;5009188;28;20033;-86
2021/08/22 07:02:22;;;;;;;8.00;2.00;;;;;;;14.92;91.82;101542.66;5009745;28;20083;-85
2021/08/22 07:04:48;;;;;;;4.63;1.70;;;;;;;14.95;91.55;101545.00;5024662;28;20029;-85
2021/08/22 07:07:13;;;;;;;5.47;1.90;;;;;;;14.83;91.57;101514.00;5008549;28;20045;-85
2021/08/22 07:09:39;;;;;;;8.25;2.00;;;;;;;15.08;91.17;101553.34;4992423;28;20029;-86
2021/08/22 07:12:05;;;;;;;8.80;2.67;;;;;;;15.09;90.89;101549.59;5010326;28;20448;-85
2021/08/22 07:14:31;;;;;;;5.15;1.77;;;;;;;15.14;90.79;101554.47;5009149;28;20075;-84
2021/08/22 07:16:56;;;;;;;5.50;1.80;;;;;;;15.08;90.82;101541.66;5011428;28;20060;-84
2021/08/22 07:19:23;;;;;;;8.32;2.22;;;;;;;15.14;90.58;101555.31;5027021;28;20558;-86
2021/08/22 07:21:49;;;;;;;4.03;1.50;;;;;;;15.18;90.66;101553.88;5012138;28;20026;-86
2021/08/22 07:24:14;;;;;;;10.30;2.20;;;;;;;15.14;90.36;101546.34;5010499;28;20025;-85
2021/08/22 07:26:40;;;;;;;9.43;2.13;;;;;;;15.30;90.33;101565.13;4999961;28;20034;-86
2021/08/22 07:29:06;;;;;;;6.05;2.08;;;;;;;15.31;90.10;101568.66;4996488;28;20067;-86
2021/08/22 07:31:32;;;;;;;8.43;2.25;;;;;;;15.32;90.04;101576.63;5008260;28;20021;-86
2021/08/22 07:33:57;;;;;;;3.50;1.90;;;;;;;15.34;89.73;101571.81;5012738;28;20029;-86
2021/08/22 07:36:23;;;;;;;4.25;1.70;;;;;;;15.32;89.63;101576.63;5013317;28;20031;-86
2021/08/22 07:38:49;;;;;;;3.00;1.70;;;;;;;15.24;89.51;101563.16;5027043;28;20036;-86
2021/08/22 07:41:14;;;;;;;3.80;1.80;;;;;;;15.31;89.44;101574.91;5001803;28;20045;-85
2021/08/22 07:43:40;;;;;;;4.60;1.60;;;;;;;15.32;89.19;101579.31;5021900;28;20030;-85
2021/08/22 07:46:06;;;;;;;3.85;1.73;;;;;;;15.39;88.84;101593.78;5013121;28;20033;-86
2021/08/22 07:48:31;;;;;;;6.93;2.40;;;;;;;15.48;88.74;101602.69;5029609;28;20025;-86
2021/08/22 07:50:57;;;;;;;4.28;1.73;;;;;;;15.41;88.57;101569.22;5029122;28;20373;-85
2021/08/22 07:53:22;;;;;;;3.35;1.30;;;;;;;15.65;88.15;101595.19;5007996;28;20040;-86
2021/08/22 07:55:48;;;;;;;6.13;1.75;;;;;;;15.55;87.79;101584.63;5001212;28;20037;-85
2021/08/22 07:58:14;;;;;;;4.85;1.65;;;;;;;15.72;87.93;101604.28;5011037;28;20026;-86
2021/08/22 08:00:40;;;;;;;7.38;1.98;;;;;;;15.81;87.60;101608.56;5010988;28;20117;-84
2021/08/22 08:03:05;;;;;;;6.47;2.08;;;;;;;15.78;87.61;101600.81;5028378;28;20029;-84
2021/08/22 08:05:31;;;;;;;7.15;1.75;;;;;;;15.81;87.17;101596.88;5030355;28;20047;-85
2021/08/22 08:07:57;;;;;;;5.50;1.50;;;;;;;15.89;86.41;101614.91;5008484;28;20088;-87
2021/08/22 08:10:24;;;;;;;4.28;1.65;;;;;;;15.93;86.12;101606.22;5027285;28;20037;-84
2021/08/22 08:12:50;;;;;;;5.60;1.70;;;;;;;16.01;85.63;101613.41;5023095;28;20113;-85
2021/08/22 08:15:16;;;;;;;5.18;1.80;;;;;;;16.09;85.39;101613.28;5028865;28;20030;-86
2021/08/22 08:17:41;;;;;;;4.68;1.67;;;;;;;16.17;85.04;101606.91;5023798;28;20026;-83
2021/08/22 08:20:07;;;;;;;5.32;1.70;;;;;;;16.21;83.38;101614.44;5012420;28;20029;-86
2021/08/22 08:22:33;;;;;;;3.20;1.52;;;;;;;16.21;81.93;101619.88;5045058;28;20025;-85
2021/08/22 08:24:59;;;;;;;5.57;1.60;;;;;;;16.30;81.60;101620.59;5023640;28;20040;-85
2021/08/22 08:27:24;;;;;;;3.95;1.67;;;;;;;16.24;80.24;101607.78;5020541;28;20389;-85
2021/08/22 08:29:51;;;;;;;4.50;1.30;;;;;;;16.34;79.36;101610.19;5001155;28;20508;-85
2021/08/22 08:32:17;;;;;;;3.42;1.35;;;;;;;16.48;78.92;101614.72;5010111;28;20056;-85
2021/08/22 08:34:43;;;;;;;4.55;1.67;;;;;;;16.47;78.01;101591.31;4994844;28;20079;-86
2021/08/22 08:37:09;;;;;;;2.88;1.50;;;;;;;16.68;76.75;101604.88;5014430;28;20022;-87
2021/08/22 08:42:46;;;;;;;3.13;1.52;;;;;;;16.76;73.82;101612.06;5013432;28;20034;-84
2021/08/22 08:45:16;;;;;;;3.55;1.33;;;;;;;16.84;73.19;101627.41;5009860;28;20030;-87
2021/08/22 08:47:43;;;;;;;4.00;1.60;;;;;;;16.86;73.48;101620.75;5030840;28;20561;-86
2021/08/22 08:50:36;;;;;;;4.07;1.50;;;;;;;16.99;73.91;101620.00;5024129;28;20041;-85
2021/08/22 08:53:08;;;;;;;3.70;1.42;;;;;;;17.18;73.56;101626.63;5027603;28;20032;-86
2021/08/22 08:56:13;;;;;;;3.00;1.25;;;;;;;17.25;72.56;101627.53;5017558;28;20021;-86
2021/08/22 08:58:38;;;;;;;2.25;1.20;;;;;;;17.26;72.11;101617.47;5024201;28;20045;-85
2021/08/22 09:01:04;;;;;;;2.45;1.40;;;;;;;17.37;71.44;101627.78;5014882;28;20111;-86
2021/08/22 09:03:30;;;;;;;3.65;1.63;;;;;;;17.42;71.50;101630.75;5012447;28;20431;-87
2021/08/22 09:06:26;;;;;;;;;;;;;;;17.89;70.75;101631.00;5018304;28;20033;-88
2021/08/22 09:09:26;;;;;;;3.17;1.30;;;;;;;18.34;69.33;101632.22;5019028;28;19959;-88
2021/08/22 09:12:29;;;;;;;5.20;1.67;;;;;;;18.61;67.75;101635.00;5020852;28;20025;-87
2021/08/22 09:15:34;;;;;;;3.60;1.30;;;;;;;19.02;65.17;101642.16;5052643;28;20123;-86
2021/08/22 09:18:25;;;;;;;3.13;1.25;;;;;;;19.22;64.38;101653.91;5031019;28;20044;-85
2021/08/22 09:21:08;;;;;;;4.28;1.70;;;;;;;19.12;64.18;101650.75;5050885;28;20025;-86
2021/08/22 09:24:12;;;;;;;4.05;2.65;;;;;;;19.22;64.12;101659.34;5032531;28;20029;-87
2021/08/22 09:26:41;;;;;;;3.35;1.33;;;;;;;19.58;63.59;101660.72;5022994;28;20087;-89
2021/08/22 09:29:44;;;;;;;3.78;1.40;;;;;;;19.72;62.08;101667.88;5039071;28;20037;-89
2021/08/22 09:32:56;;;;;;;2.67;1.40;;;;;;;19.83;61.22;101665.53;5019990;28;20168;-86
2021/08/22 09:35:59;;;;;;;2.83;1.27;;;;;;;19.95;60.56;101672.84;5015836;28;20033;-85
2021/08/22 09:38:50;;;;;;;1.83;1.30;;;;;;;20.01;61.04;101673.88;5030766;28;20056;-87
2021/08/22 09:42:01;;;;;;;3.67;1.95;;;;;;;20.08;60.45;101676.56;5037012;28;20044;-86
2021/08/22 09:45:23;;;;;;;5.10;1.63;;;;;;;20.15;59.72;101680.13;5026396;28;20511;-88
2021/08/22 09:48:11;;;;;;;3.88;1.23;;;;;;;20.08;60.14;101682.84;5037845;28;20017;-86
2021/08/22 09:51:08;;;;;;;3.70;1.52;;;;;;;20.36;59.45;101673.50;5039007;28;20590;-87
2021/08/22 09:54:01;;;;;;;2.60;1.40;;;;;;;20.74;59.16;101678.13;5032351;28;20041;-86
2021/08/22 09:57:24;;;;;;;3.20;1.52;;;;;;;21.07;58.12;101680.59;5028703;28;20033;-88
2021/08/22 10:00:19;;;;;;;5.10;1.45;;;;;;;20.39;59.02;101678.50;4990158;28;20117;-86
2021/08/22 10:03:20;;;;;;;2.40;1.33;;;;;;;20.06;60.12;101684.13;4959809;28;20062;-87
2021/08/22 10:06:13;;;;;;;4.53;1.58;;;;;;;19.84;60.88;101686.31;5017748;28;20083;-88
2021/08/22 10:08:45;;;;;;;2.28;1.42;;;;;;;19.83;61.94;101688.22;5030473;28;20033;-86
2021/08/22 10:11:14;;;;;;;3.92;1.60;;;;;;;20.18;61.85;101693.31;5033236;28;20022;-88
2021/08/22 10:13:39;;;;;;;5.18;1.67;;;;;;;19.97;62.97;101698.03;5018777;28;20044;-87
2021/08/22 10:16:05;;;;;;;4.20;1.40;;;;;;;19.95;61.53;101689.22;5026630;28;20038;-85
2021/08/22 10:18:31;;;;;;;3.25;1.50;;;;;;;20.09;60.96;101683.72;5031873;28;20475;-85
2021/08/22 10:21:02;;;;;;;5.00;1.88;;;;;;;20.08;60.33;101712.06;5032687;28;20037;-87
2021/08/22 10:23:42;;;;;;;1.90;1.20;;;;;;;20.01;61.02;101705.81;5038189;28;20017;-86
2021/08/22 10:26:28;;;;;;;3.60;1.33;;;;;;;19.87;61.32;101713.16;5039084;28;20499;-85
2021/08/22 10:29:00;;;;;;;2.50;1.42;;;;;;;20.15;60.81;101719.16;5033904;28;20033;-88
2021/08/22 10:31:54;;;;;;;2.67;1.27;;;;;;;20.50;59.85;101707.03;5023893;28;20026;-86
2021/08/22 10:34:24;;;;;;;2.22;1.17;;;;;;;20.86;58.92;101706.44;5026673;28;20025;-86
2021/08/22 10:36:50;;;;;;;2.25;1.30;;;;;;;21.17;58.29;101713.78;5037283;28;20523;-87
2021/08/22 10:39:22;;;;;;;2.42;1.38;;;;;;;21.44;55.95;101719.88;5018042;28;20036;-85
2021/08/22 10:41:49;;;;;;;4.60;1.33;;;;;;;21.34;56.61;101703.09;5011794;28;20084;-86
2021/08/22 10:44:34;;;;;;;3.08;1.30;;;;;;;21.46;56.05;101720.47;5030434;28;20021;-89
2021/08/22 10:47:05;;;;;;;4.07;1.35;;;;;;;21.54;56.74;101718.50;5034726;28;20021;-86
2021/08/22 10:49:50;;;;;;;2.63;1.10;;;;;;;21.59;55.52;101727.69;5018143;28;20029;-87
2021/08/22 10:52:20;;;;;;;2.83;1.55;;;;;;;21.90;54.84;101729.50;5032195;28;20539;-87
2021/08/22 10:55:06;;;;;;;3.08;1.60;;;;;;;22.05;54.85;101731.03;5028359;28;20036;-86
2021/08/22 10:57:44;;;;;;;3.22;1.20;;;;;;;22.23;54.18;101731.06;5023906;28;20026;-87
2021/08/22 11:00:34;;;;;;;4.00;1.55;;;;;;;21.73;55.33;101726.53;5012713;28;20030;-85
2021/08/22 11:03:05;;;;;;;4.18;1.50;;;;;;;21.37;56.23;101735.47;5011131;28;20063;-86
2021/08/22 11:05:34;;;;;;;3.35;1.70;;;;;;;21.25;57.43;101731.81;5016987;28;20373;-86
2021/08/22 11:08:18;;;;;;;3.25;1.48;;;;;;;21.28;56.30;101732.19;5013263;28;20017;-86
2021/08/22 11:11:06;;;;;;;4.00;1.75;;;;;;;21.69;56.33;101738.16;5020064;28;20025;-85
2021/08/22 11:13:33;;;;;;;2.92;1.50;;;;;;;21.70;55.04;101735.19;5000039;28;20504;-85
2021/08/22 11:16:06;;;;;;;3.45;1.80;;;;;;;21.41;56.02;101744.94;5000410;28;20034;-85
2021/08/22 11:18:35;;;;;;;;;;;;;;;21.20;57.39;101737.09;5025558;28;20041;-83
2021/08/22 11:21:01;;;;;;;3.45;1.70;;;;;;;21.15;57.99;101736.94;4996947;28;20320;-84
2021/08/22 11:23:26;;;;;;;6.07;1.67;;;;;;;21.39;57.26;101736.13;5007131;28;20037;-86
2021/08/22 11:26:05;;;;;;;3.80;1.80;;;;;;;21.41;57.86;101744.13;5007364;28;20391;-85
2021/08/22 11:28:32;;;;;;;4.03;1.48;;;;;;;21.04;58.36;101728.38;5000406;28;20091;-86
2021/08/22 11:30:58;;;;;;;5.35;1.73;;;;;;;20.97;59.33;101740.41;5007394;28;20025;-87
2021/08/22 11:33:29;;;;;;;3.05;1.50;;;;;;;20.81;59.81;101736.31;5031029;28;20045;-87
2021/08/22 11:35:55;;;;;;;2.70;1.83;;;;;;;20.83;59.93;101745.13;5021111;28;20117;-87
2021/08/22 11:38:21;;;;;;;3.95;1.45;;;;;;;20.72;60.52;101743.09;5027662;28;20033;-86
2021/08/22 11:40:47;;;;;;;3.03;1.65;;;;;;;20.59;60.36;101746.75;5015976;28;20495;-87